createdAt,value
2023-02-22T00:05:48.991Z,77
2023-02-22T00:20:49.008Z,77
2023-02-22T00:35:48.979Z,78
2023-02-22T00:50:48.987Z,77
2023-02-22T01:05:48.941Z,77
2023-02-22T01:20:48.933Z,78
2023-02-22T01:35:48.901Z,78
2023-02-22T01:50:48.942Z,78
2023-02-22T02:05:48.861Z,78
2023-02-22T02:20:48.905Z,78
2023-02-22T02:35:48.832Z,78
2023-02-22T02:50:48.845Z,78
2023-02-22T03:05:48.790Z,78
2023-02-22T03:20:48.778Z,78
2023-02-22T03:35:48.769Z,78
2023-02-22T03:50:48.810Z,78
2023-02-22T04:05:48.751Z,78
2023-02-22T04:20:48.750Z,78
2023-02-22T04:35:48.745Z,79
2023-02-22T04:50:48.760Z,79
2023-02-22T05:05:48.684Z,80
2023-02-22T05:20:48.728Z,80
2023-02-22T05:35:48.687Z,81
2023-02-22T05:50:48.705Z,81
2023-02-22T06:05:48.767Z,81
2023-02-22T06:20:48.657Z,81
2023-02-22T06:35:48.609Z,81
2023-02-22T06:50:48.629Z,82
2023-02-22T07:05:48.608Z,82
2023-02-22T07:20:48.628Z,82
2023-02-22T07:35:48.581Z,82
2023-02-22T07:50:48.587Z,82
2023-02-22T08:05:48.537Z,83
2023-02-22T08:20:48.568Z,82
2023-02-22T08:35:48.520Z,82
2023-02-22T08:50:48.529Z,82
2023-02-22T09:05:48.567Z,81
2023-02-22T09:20:48.504Z,81
2023-02-22T09:35:48.459Z,81
2023-02-22T09:50:48.472Z,81
2023-02-22T10:05:48.415Z,81
2023-02-22T10:20:48.452Z,81
2023-02-22T10:35:48.414Z,81
2023-02-22T10:50:48.407Z,81
2023-02-22T11:05:48.373Z,81
2023-02-22T11:20:48.396Z,80
2023-02-22T11:35:48.412Z,80
2023-02-22T11:50:48.353Z,79
2023-02-22T12:05:48.302Z,80
2023-02-22T12:20:48.292Z,79
2023-02-22T12:35:48.257Z,79
2023-02-22T12:50:48.274Z,79
2023-02-22T13:05:48.258Z,79
2023-02-22T13:20:48.217Z,78
2023-02-22T13:35:48.174Z,77
2023-02-22T13:50:48.171Z,77
2023-02-22T14:05:48.152Z,77
2023-02-22T14:20:48.147Z,77
2023-02-22T14:35:50.360Z,77
2023-02-22T14:50:48.123Z,77
2023-02-22T15:05:48.073Z,77
2023-02-22T15:20:48.177Z,77
2023-02-22T15:35:48.007Z,77
2023-02-22T15:50:48.029Z,77
2023-02-22T16:05:47.982Z,77
2023-02-22T16:20:47.993Z,77
2023-02-22T16:35:47.926Z,77
2023-02-22T16:50:49.651Z,77
2023-02-22T17:05:48.052Z,77
2023-02-22T17:20:47.899Z,77
2023-02-22T17:35:47.893Z,77
2023-02-22T17:50:47.889Z,77
2023-02-22T18:05:47.888Z,78
2023-02-22T18:20:47.832Z,78
2023-02-22T18:35:47.794Z,78
2023-02-22T18:50:47.801Z,78
2023-02-22T19:05:47.770Z,78
2023-02-22T19:20:47.758Z,78
2023-02-22T19:35:47.725Z,78
2023-02-22T19:50:47.701Z,78
2023-02-22T20:05:47.692Z,79
2023-02-22T20:20:47.719Z,80
2023-02-22T20:35:47.661Z,82
2023-02-22T20:50:47.690Z,83
2023-02-22T21:05:47.606Z,84
2023-02-22T21:20:47.697Z,84
2023-02-22T21:35:47.614Z,84
2023-02-22T21:50:47.606Z,85
2023-02-22T22:05:47.570Z,85
2023-02-22T22:20:47.594Z,85
2023-02-22T22:35:47.548Z,85
2023-02-22T22:50:47.537Z,85
2023-02-22T23:05:47.480Z,85
2023-02-22T23:20:47.488Z,85
2023-02-22T23:35:47.478Z,85
2023-02-22T23:50:47.477Z,85
